sensor_id;sensor_type;location;lat;lon;timestamp;temperature;humidity
52621;DHT22;38515;53.160;6.990;2023-06-14T00:02:06;15.50;89.10
52621;DHT22;38515;53.160;6.990;2023-06-14T00:04:35;15.40;89.30
52621;DHT22;38515;53.160;6.990;2023-06-14T00:07:01;15.40;89.40
52621;DHT22;38515;53.160;6.990;2023-06-14T00:09:26;15.40;89.70
52621;DHT22;38515;53.160;6.990;2023-06-14T00:11:52;15.40;90.00
52621;DHT22;38515;53.160;6.990;2023-06-14T00:14:18;15.40;90.20
52621;DHT22;38515;53.160;6.990;2023-06-14T00:16:44;15.30;90.30
52621;DHT22;38515;53.160;6.990;2023-06-14T00:19:10;15.40;90.60
52621;DHT22;38515;53.160;6.990;2023-06-14T00:21:37;15.30;90.60
52621;DHT22;38515;53.160;6.990;2023-06-14T00:24:03;15.30;90.80
52621;DHT22;38515;53.160;6.990;2023-06-14T00:26:29;15.40;90.80
52621;DHT22;38515;53.160;6.990;2023-06-14T00:28:55;15.40;90.90
52621;DHT22;38515;53.160;6.990;2023-06-14T00:31:23;15.30;91.20
52621;DHT22;38515;53.160;6.990;2023-06-14T00:33:49;15.30;91.40
52621;DHT22;38515;53.160;6.990;2023-06-14T00:36:14;15.30;91.60
52621;DHT22;38515;53.160;6.990;2023-06-14T00:38:40;15.30;91.90
52621;DHT22;38515;53.160;6.990;2023-06-14T00:41:06;15.20;92.20
52621;DHT22;38515;53.160;6.990;2023-06-14T00:43:32;15.20;92.40
52621;DHT22;38515;53.160;6.990;2023-06-14T00:46:00;15.10;92.50
52621;DHT22;38515;53.160;6.990;2023-06-14T00:48:27;15.20;92.90
52621;DHT22;38515;53.160;6.990;2023-06-14T00:50:53;15.10;93.20
52621;DHT22;38515;53.160;6.990;2023-06-14T00:53:19;15.10;93.40
52621;DHT22;38515;53.160;6.990;2023-06-14T00:55:48;15.00;93.60
52621;DHT22;38515;53.160;6.990;2023-06-14T00:58:15;15.00;93.90
52621;DHT22;38515;53.160;6.990;2023-06-14T01:00:41;14.90;94.20
52621;DHT22;38515;53.160;6.990;2023-06-14T01:03:07;14.90;94.60
52621;DHT22;38515;53.160;6.990;2023-06-14T01:05:38;14.90;94.70
52621;DHT22;38515;53.160;6.990;2023-06-14T01:13:34;14.80;95.70
52621;DHT22;38515;53.160;6.990;2023-06-14T01:16:02;14.80;95.90
52621;DHT22;38515;53.160;6.990;2023-06-14T01:18:29;14.80;96.20
52621;DHT22;38515;53.160;6.990;2023-06-14T01:20:55;14.70;96.50
52621;DHT22;38515;53.160;6.990;2023-06-14T01:23:22;14.70;96.80
52621;DHT22;38515;53.160;6.990;2023-06-14T01:25:49;14.70;97.10
52621;DHT22;38515;53.160;6.990;2023-06-14T01:28:19;14.70;97.50
52621;DHT22;38515;53.160;6.990;2023-06-14T01:30:52;14.60;97.70
52621;DHT22;38515;53.160;6.990;2023-06-14T01:33:24;14.60;98.00
52621;DHT22;38515;53.160;6.990;2023-06-14T01:35:52;14.60;98.40
52621;DHT22;38515;53.160;6.990;2023-06-14T01:38:23;14.60;98.60
52621;DHT22;38515;53.160;6.990;2023-06-14T01:40:51;14.50;98.80
52621;DHT22;38515;53.160;6.990;2023-06-14T01:43:18;14.50;99.10
52621;DHT22;38515;53.160;6.990;2023-06-14T01:45:47;14.50;99.50
52621;DHT22;38515;53.160;6.990;2023-06-14T01:48:14;14.50;99.90
52621;DHT22;38515;53.160;6.990;2023-06-14T01:50:41;14.40;99.90
52621;DHT22;38515;53.160;6.990;2023-06-14T01:53:08;14.50;99.90
52621;DHT22;38515;53.160;6.990;2023-06-14T01:55:34;14.40;99.90
52621;DHT22;38515;53.160;6.990;2023-06-14T01:58:05;14.40;99.90
52621;DHT22;38515;53.160;6.990;2023-06-14T02:00:31;14.40;99.90
52621;DHT22;38515;53.160;6.990;2023-06-14T02:02:57;14.30;99.90
52621;DHT22;38515;53.160;6.990;2023-06-14T02:05:23;14.30;99.90
52621;DHT22;38515;53.160;6.990;2023-06-14T02:07:49;14.30;99.90
52621;DHT22;38515;53.160;6.990;2023-06-14T02:10:16;14.30;99.90
52621;DHT22;38515;53.160;6.990;2023-06-14T02:12:43;14.20;99.90
52621;DHT22;38515;53.160;6.990;2023-06-14T02:15:09;14.20;99.90
52621;DHT22;38515;53.160;6.990;2023-06-14T02:17:42;14.20;99.90
52621;DHT22;38515;53.160;6.990;2023-06-14T02:20:08;14.20;99.90
52621;DHT22;38515;53.160;6.990;2023-06-14T02:22:35;14.10;99.90
52621;DHT22;38515;53.160;6.990;2023-06-14T02:25:01;14.10;99.90
52621;DHT22;38515;53.160;6.990;2023-06-14T02:27:27;14.10;99.90
52621;DHT22;38515;53.160;6.990;2023-06-14T02:29:53;14.10;99.90
52621;DHT22;38515;53.160;6.990;2023-06-14T02:32:18;14.00;99.90
52621;DHT22;38515;53.160;6.990;2023-06-14T02:34:44;14.00;99.90
52621;DHT22;38515;53.160;6.990;2023-06-14T02:37:10;13.90;99.90
52621;DHT22;38515;53.160;6.990;2023-06-14T02:39:36;13.90;99.90
52621;DHT22;38515;53.160;6.990;2023-06-14T02:42:02;13.90;99.90
52621;DHT22;38515;53.160;6.990;2023-06-14T02:44:29;13.80;99.90
52621;DHT22;38515;53.160;6.990;2023-06-14T02:46:55;13.80;99.90
52621;DHT22;38515;53.160;6.990;2023-06-14T02:49:22;13.80;99.90
52621;DHT22;38515;53.160;6.990;2023-06-14T02:51:48;13.80;99.90
52621;DHT22;38515;53.160;6.990;2023-06-14T02:54:14;13.80;99.90
52621;DHT22;38515;53.160;6.990;2023-06-14T02:56:39;13.80;99.90
52621;DHT22;38515;53.160;6.990;2023-06-14T02:59:06;13.80;99.90
52621;DHT22;38515;53.160;6.990;2023-06-14T03:01:34;13.80;99.90
52621;DHT22;38515;53.160;6.990;2023-06-14T03:04:04;13.80;99.90
52621;DHT22;38515;53.160;6.990;2023-06-14T03:06:30;13.70;99.90
52621;DHT22;38515;53.160;6.990;2023-06-14T03:08:57;13.80;99.90
52621;DHT22;38515;53.160;6.990;2023-06-14T03:11:27;13.80;99.90
52621;DHT22;38515;53.160;6.990;2023-06-14T03:13:53;13.80;99.90
52621;DHT22;38515;53.160;6.990;2023-06-14T03:16:19;13.70;99.90
52621;DHT22;38515;53.160;6.990;2023-06-14T03:18:49;13.70;99.90
52621;DHT22;38515;53.160;6.990;2023-06-14T03:21:15;13.60;99.90
52621;DHT22;38515;53.160;6.990;2023-06-14T03:23:42;13.60;99.90
52621;DHT22;38515;53.160;6.990;2023-06-14T03:26:08;13.60;99.90
52621;DHT22;38515;53.160;6.990;2023-06-14T03:28:34;13.60;99.90
52621;DHT22;38515;53.160;6.990;2023-06-14T03:31:00;13.60;99.90
52621;DHT22;38515;53.160;6.990;2023-06-14T03:33:27;13.60;99.90
52621;DHT22;38515;53.160;6.990;2023-06-14T03:35:52;13.50;99.90
52621;DHT22;38515;53.160;6.990;2023-06-14T03:38:18;13.50;99.90
52621;DHT22;38515;53.160;6.990;2023-06-14T03:40:44;13.50;99.90
52621;DHT22;38515;53.160;6.990;2023-06-14T03:43:10;13.50;99.90
52621;DHT22;38515;53.160;6.990;2023-06-14T03:45:36;13.50;99.90
52621;DHT22;38515;53.160;6.990;2023-06-14T03:48:03;13.50;99.90
52621;DHT22;38515;53.160;6.990;2023-06-14T03:50:28;13.50;99.90
52621;DHT22;38515;53.160;6.990;2023-06-14T03:52:54;13.50;99.90
52621;DHT22;38515;53.160;6.990;2023-06-14T03:55:20;13.50;99.90
52621;DHT22;38515;53.160;6.990;2023-06-14T03:57:46;13.50;99.90
52621;DHT22;38515;53.160;6.990;2023-06-14T04:00:12;13.50;99.90
52621;DHT22;38515;53.160;6.990;2023-06-14T04:02:38;13.60;99.90
52621;DHT22;38515;53.160;6.990;2023-06-14T04:05:04;13.50;99.90
52621;DHT22;38515;53.160;6.990;2023-06-14T04:07:34;13.60;99.90
52621;DHT22;38515;53.160;6.990;2023-06-14T04:10:06;13.60;99.90
52621;DHT22;38515;53.160;6.990;2023-06-14T04:12:32;13.60;99.90
52621;DHT22;38515;53.160;6.990;2023-06-14T04:14:58;13.60;99.90
52621;DHT22;38515;53.160;6.990;2023-06-14T04:17:24;13.70;99.90
52621;DHT22;38515;53.160;6.990;2023-06-14T04:19:50;13.70;99.90
52621;DHT22;38515;53.160;6.990;2023-06-14T04:22:16;13.70;99.90
52621;DHT22;38515;53.160;6.990;2023-06-14T04:24:42;13.80;99.90
52621;DHT22;38515;53.160;6.990;2023-06-14T04:27:08;13.80;99.90
52621;DHT22;38515;53.160;6.990;2023-06-14T04:29:34;13.80;99.90
52621;DHT22;38515;53.160;6.990;2023-06-14T04:32:00;13.80;99.90
52621;DHT22;38515;53.160;6.990;2023-06-14T04:34:27;13.90;99.90
52621;DHT22;38515;53.160;6.990;2023-06-14T04:37:00;13.90;99.90
52621;DHT22;38515;53.160;6.990;2023-06-14T04:39:27;14.00;99.90
52621;DHT22;38515;53.160;6.990;2023-06-14T04:41:53;14.00;99.90
52621;DHT22;38515;53.160;6.990;2023-06-14T04:44:23;14.10;99.90
52621;DHT22;38515;53.160;6.990;2023-06-14T04:46:58;14.10;99.90
52621;DHT22;38515;53.160;6.990;2023-06-14T04:49:25;14.20;99.90
52621;DHT22;38515;53.160;6.990;2023-06-14T04:51:53;14.30;99.90
52621;DHT22;38515;53.160;6.990;2023-06-14T04:54:24;14.30;99.90
52621;DHT22;38515;53.160;6.990;2023-06-14T04:56:51;14.40;99.90
52621;DHT22;38515;53.160;6.990;2023-06-14T04:59:19;14.40;99.90
52621;DHT22;38515;53.160;6.990;2023-06-14T05:01:44;14.40;99.90
52621;DHT22;38515;53.160;6.990;2023-06-14T05:04:15;14.50;99.90
52621;DHT22;38515;53.160;6.990;2023-06-14T05:06:42;14.60;99.90
52621;DHT22;38515;53.160;6.990;2023-06-14T05:09:14;14.70;99.90
52621;DHT22;38515;53.160;6.990;2023-06-14T05:11:40;14.70;99.90
52621;DHT22;38515;53.160;6.990;2023-06-14T05:14:11;14.80;99.90
52621;DHT22;38515;53.160;6.990;2023-06-14T05:16:37;14.90;99.90
52621;DHT22;38515;53.160;6.990;2023-06-14T05:19:03;15.00;99.90
52621;DHT22;38515;53.160;6.990;2023-06-14T05:21:32;15.00;99.90
52621;DHT22;38515;53.160;6.990;2023-06-14T05:24:00;15.10;99.90
52621;DHT22;38515;53.160;6.990;2023-06-14T05:26:26;15.20;99.90
52621;DHT22;38515;53.160;6.990;2023-06-14T05:28:56;15.30;99.90
52621;DHT22;38515;53.160;6.990;2023-06-14T05:31:23;15.40;99.90
52621;DHT22;38515;53.160;6.990;2023-06-14T05:33:50;15.50;99.90
52621;DHT22;38515;53.160;6.990;2023-06-14T05:36:16;15.70;99.90
52621;DHT22;38515;53.160;6.990;2023-06-14T05:38:42;15.80;99.90
52621;DHT22;38515;53.160;6.990;2023-06-14T05:41:08;15.90;99.90
52621;DHT22;38515;53.160;6.990;2023-06-14T05:43:34;16.10;99.90
52621;DHT22;38515;53.160;6.990;2023-06-14T05:46:00;16.20;99.90
52621;DHT22;38515;53.160;6.990;2023-06-14T05:48:26;16.60;99.90
52621;DHT22;38515;53.160;6.990;2023-06-14T05:50:51;16.90;99.90
52621;DHT22;38515;53.160;6.990;2023-06-14T05:53:17;17.30;99.90
52621;DHT22;38515;53.160;6.990;2023-06-14T05:55:43;17.70;99.90
52621;DHT22;38515;53.160;6.990;2023-06-14T05:58:09;17.90;99.90
52621;DHT22;38515;53.160;6.990;2023-06-14T06:00:36;18.10;99.90
52621;DHT22;38515;53.160;6.990;2023-06-14T06:03:02;18.30;99.90
52621;DHT22;38515;53.160;6.990;2023-06-14T06:05:28;18.50;99.90
52621;DHT22;38515;53.160;6.990;2023-06-14T06:07:54;18.60;99.90
52621;DHT22;38515;53.160;6.990;2023-06-14T06:10:20;18.80;99.90
52621;DHT22;38515;53.160;6.990;2023-06-14T06:12:46;19.00;99.90
52621;DHT22;38515;53.160;6.990;2023-06-14T06:15:14;19.10;99.90
52621;DHT22;38515;53.160;6.990;2023-06-14T06:17:40;19.10;99.90
52621;DHT22;38515;53.160;6.990;2023-06-14T06:20:06;19.20;99.90
52621;DHT22;38515;53.160;6.990;2023-06-14T06:22:34;19.30;99.90
52621;DHT22;38515;53.160;6.990;2023-06-14T06:25:00;19.40;99.50
52621;DHT22;38515;53.160;6.990;2023-06-14T06:27:26;19.60;99.70
52621;DHT22;38515;53.160;6.990;2023-06-14T06:29:52;19.80;99.40
52621;DHT22;38515;53.160;6.990;2023-06-14T06:32:18;19.90;98.80
52621;DHT22;38515;53.160;6.990;2023-06-14T06:34:45;20.10;98.60
52621;DHT22;38515;53.160;6.990;2023-06-14T06:37:11;20.10;98.00
52621;DHT22;38515;53.160;6.990;2023-06-14T06:39:37;20.30;97.50
52621;DHT22;38515;53.160;6.990;2023-06-14T06:42:03;20.20;96.50
52621;DHT22;38515;53.160;6.990;2023-06-14T06:44:29;20.20;96.30
52621;DHT22;38515;53.160;6.990;2023-06-14T06:46:55;20.30;96.00
52621;DHT22;38515;53.160;6.990;2023-06-14T06:49:21;20.40;96.00
52621;DHT22;38515;53.160;6.990;2023-06-14T06:52:00;20.60;96.30
52621;DHT22;38515;53.160;6.990;2023-06-14T06:54:27;20.80;95.00
52621;DHT22;38515;53.160;6.990;2023-06-14T06:56:53;20.90;95.40
52621;DHT22;38515;53.160;6.990;2023-06-14T06:59:19;20.90;94.50
52621;DHT22;38515;53.160;6.990;2023-06-14T07:01:45;21.00;94.30
52621;DHT22;38515;53.160;6.990;2023-06-14T07:04:12;20.90;93.80
52621;DHT22;38515;53.160;6.990;2023-06-14T07:06:38;21.10;93.80
52621;DHT22;38515;53.160;6.990;2023-06-14T07:09:03;21.10;93.50
52621;DHT22;38515;53.160;6.990;2023-06-14T07:11:32;21.20;93.50
52621;DHT22;38515;53.160;6.990;2023-06-14T07:13:58;21.30;93.60
52621;DHT22;38515;53.160;6.990;2023-06-14T07:16:24;21.50;93.40
52621;DHT22;38515;53.160;6.990;2023-06-14T07:18:51;21.50;92.40
52621;DHT22;38515;53.160;6.990;2023-06-14T07:21:48;21.60;92.10
52621;DHT22;38515;53.160;6.990;2023-06-14T07:24:14;21.80;91.60
52621;DHT22;38515;53.160;6.990;2023-06-14T07:26:40;21.90;91.70
52621;DHT22;38515;53.160;6.990;2023-06-14T07:29:06;22.20;90.90
52621;DHT22;38515;53.160;6.990;2023-06-14T07:31:32;22.30;90.40
52621;DHT22;38515;53.160;6.990;2023-06-14T07:33:58;22.50;90.20
52621;DHT22;38515;53.160;6.990;2023-06-14T07:36:24;22.40;88.40
52621;DHT22;38515;53.160;6.990;2023-06-14T07:38:50;22.50;88.70
52621;DHT22;38515;53.160;6.990;2023-06-14T07:41:16;22.50;87.50
52621;DHT22;38515;53.160;6.990;2023-06-14T07:43:42;22.40;86.30
52621;DHT22;38515;53.160;6.990;2023-06-14T07:46:09;22.30;86.50
52621;DHT22;38515;53.160;6.990;2023-06-14T07:48:35;22.20;86.80
52621;DHT22;38515;53.160;6.990;2023-06-14T07:51:01;22.40;87.40
52621;DHT22;38515;53.160;6.990;2023-06-14T07:53:26;22.40;85.90
52621;DHT22;38515;53.160;6.990;2023-06-14T07:55:53;22.30;84.80
52621;DHT22;38515;53.160;6.990;2023-06-14T07:58:18;22.10;84.30
52621;DHT22;38515;53.160;6.990;2023-06-14T08:00:44;22.00;84.00
52621;DHT22;38515;53.160;6.990;2023-06-14T08:03:11;21.80;84.20
52621;DHT22;38515;53.160;6.990;2023-06-14T08:05:40;21.90;85.30
52621;DHT22;38515;53.160;6.990;2023-06-14T08:08:05;22.10;85.70
52621;DHT22;38515;53.160;6.990;2023-06-14T08:10:31;22.20;84.90
52621;DHT22;38515;53.160;6.990;2023-06-14T08:12:57;22.20;84.10
52621;DHT22;38515;53.160;6.990;2023-06-14T08:15:23;22.20;83.80
52621;DHT22;38515;53.160;6.990;2023-06-14T08:17:49;22.20;83.80
52621;DHT22;38515;53.160;6.990;2023-06-14T08:20:16;22.20;83.20
52621;DHT22;38515;53.160;6.990;2023-06-14T08:22:42;22.20;83.20
52621;DHT22;38515;53.160;6.990;2023-06-14T08:25:09;22.30;83.80
52621;DHT22;38515;53.160;6.990;2023-06-14T08:27:35;22.30;83.10
52621;DHT22;38515;53.160;6.990;2023-06-14T08:30:01;22.50;83.20
52621;DHT22;38515;53.160;6.990;2023-06-14T08:32:28;22.60;83.30
52621;DHT22;38515;53.160;6.990;2023-06-14T08:34:54;22.60;83.50
52621;DHT22;38515;53.160;6.990;2023-06-14T08:37:20;22.70;82.80
52621;DHT22;38515;53.160;6.990;2023-06-14T08:39:46;22.70;81.90
52621;DHT22;38515;53.160;6.990;2023-06-14T08:42:14;22.70;81.90
52621;DHT22;38515;53.160;6.990;2023-06-14T08:44:41;22.80;81.50
52621;DHT22;38515;53.160;6.990;2023-06-14T08:47:07;22.80;81.90
52621;DHT22;38515;53.160;6.990;2023-06-14T08:49:37;22.80;81.20
52621;DHT22;38515;53.160;6.990;2023-06-14T08:52:05;22.90;81.90
52621;DHT22;38515;53.160;6.990;2023-06-14T08:54:34;23.00;81.60
52621;DHT22;38515;53.160;6.990;2023-06-14T08:57:03;23.00;80.90
52621;DHT22;38515;53.160;6.990;2023-06-14T08:59:32;23.00;80.20
52621;DHT22;38515;53.160;6.990;2023-06-14T09:02:05;23.00;79.20
52621;DHT22;38515;53.160;6.990;2023-06-14T09:04:32;22.80;79.00
52621;DHT22;38515;53.160;6.990;2023-06-14T09:06:59;22.80;79.30
52621;DHT22;38515;53.160;6.990;2023-06-14T09:09:24;22.70;79.00
52621;DHT22;38515;53.160;6.990;2023-06-14T09:11:51;22.80;79.00
52621;DHT22;38515;53.160;6.990;2023-06-14T09:14:23;22.90;79.10
52621;DHT22;38515;53.160;6.990;2023-06-14T09:16:52;23.00;79.20
52621;DHT22;38515;53.160;6.990;2023-06-14T09:19:25;23.00;79.20
52621;DHT22;38515;53.160;6.990;2023-06-14T09:21:52;23.10;79.30
52621;DHT22;38515;53.160;6.990;2023-06-14T09:24:19;23.20;79.70
52621;DHT22;38515;53.160;6.990;2023-06-14T09:26:48;23.40;78.40
52621;DHT22;38515;53.160;6.990;2023-06-14T09:29:16;23.50;77.50
52621;DHT22;38515;53.160;6.990;2023-06-14T09:31:45;23.40;77.10
52621;DHT22;38515;53.160;6.990;2023-06-14T09:34:11;23.60;77.70
52621;DHT22;38515;53.160;6.990;2023-06-14T09:36:39;23.50;76.70
52621;DHT22;38515;53.160;6.990;2023-06-14T09:39:05;23.40;76.40
52621;DHT22;38515;53.160;6.990;2023-06-14T09:41:36;23.30;76.50
52621;DHT22;38515;53.160;6.990;2023-06-14T09:44:04;23.40;77.30
52621;DHT22;38515;53.160;6.990;2023-06-14T09:46:31;23.40;76.30
52621;DHT22;38515;53.160;6.990;2023-06-14T09:49:01;23.40;76.30
52621;DHT22;38515;53.160;6.990;2023-06-14T09:51:28;23.40;76.40
52621;DHT22;38515;53.160;6.990;2023-06-14T09:54:02;23.60;76.80
52621;DHT22;38515;53.160;6.990;2023-06-14T09:56:42;23.70;76.90
52621;DHT22;38515;53.160;6.990;2023-06-14T09:59:10;23.90;75.70
52621;DHT22;38515;53.160;6.990;2023-06-14T10:01:48;23.90;75.70
52621;DHT22;38515;53.160;6.990;2023-06-14T10:04:15;23.90;75.20
52621;DHT22;38515;53.160;6.990;2023-06-14T10:06:45;23.80;75.30
52621;DHT22;38515;53.160;6.990;2023-06-14T10:09:12;24.00;75.40
52621;DHT22;38515;53.160;6.990;2023-06-14T10:11:38;24.00;74.60
52621;DHT22;38515;53.160;6.990;2023-06-14T10:14:10;24.10;73.90
52621;DHT22;38515;53.160;6.990;2023-06-14T10:16:52;24.10;73.90
52621;DHT22;38515;53.160;6.990;2023-06-14T10:19:31;24.10;73.20
52621;DHT22;38515;53.160;6.990;2023-06-14T10:22:08;24.10;73.30
52621;DHT22;38515;53.160;6.990;2023-06-14T10:24:42;24.20;73.60
52621;DHT22;38515;53.160;6.990;2023-06-14T10:27:08;24.30;72.50
52621;DHT22;38515;53.160;6.990;2023-06-14T10:30:09;24.20;72.70
52621;DHT22;38515;53.160;6.990;2023-06-14T10:32:35;24.30;70.40
52621;DHT22;38515;53.160;6.990;2023-06-14T10:35:21;24.30;73.00
52621;DHT22;38515;53.160;6.990;2023-06-14T10:37:47;24.50;72.70
52621;DHT22;38515;53.160;6.990;2023-06-14T10:40:30;24.50;72.40
52621;DHT22;38515;53.160;6.990;2023-06-14T10:42:56;24.60;70.00
52621;DHT22;38515;53.160;6.990;2023-06-14T10:45:22;24.50;70.10
52621;DHT22;38515;53.160;6.990;2023-06-14T10:47:51;24.50;70.20
52621;DHT22;38515;53.160;6.990;2023-06-14T10:50:27;24.60;70.90
52621;DHT22;38515;53.160;6.990;2023-06-14T10:52:55;24.70;70.20
52621;DHT22;38515;53.160;6.990;2023-06-14T10:55:22;24.60;69.60
52621;DHT22;38515;53.160;6.990;2023-06-14T10:57:52;24.60;70.00
52621;DHT22;38515;53.160;6.990;2023-06-14T11:00:23;24.50;69.30
52621;DHT22;38515;53.160;6.990;2023-06-14T11:05:54;24.40;68.90
52621;DHT22;38515;53.160;6.990;2023-06-14T11:08:51;24.40;68.80
52621;DHT22;38515;53.160;6.990;2023-06-14T11:11:22;24.50;68.20
52621;DHT22;38515;53.160;6.990;2023-06-14T11:13:54;24.40;69.40
52621;DHT22;38515;53.160;6.990;2023-06-14T11:16:26;24.40;69.60
52621;DHT22;38515;53.160;6.990;2023-06-14T11:18:53;24.40;69.70
52621;DHT22;38515;53.160;6.990;2023-06-14T11:21:19;24.30;69.70
52621;DHT22;38515;53.160;6.990;2023-06-14T11:23:52;24.20;68.90
52621;DHT22;38515;53.160;6.990;2023-06-14T11:26:31;24.20;68.70
52621;DHT22;38515;53.160;6.990;2023-06-14T11:28:59;24.10;67.90
52621;DHT22;38515;53.160;6.990;2023-06-14T11:31:26;24.00;69.00
52621;DHT22;38515;53.160;6.990;2023-06-14T11:34:00;24.00;69.40
52621;DHT22;38515;53.160;6.990;2023-06-14T11:36:30;24.10;70.40
52621;DHT22;38515;53.160;6.990;2023-06-14T11:39:05;24.40;70.40
52621;DHT22;38515;53.160;6.990;2023-06-14T11:41:45;24.60;68.70
52621;DHT22;38515;53.160;6.990;2023-06-14T11:44:11;24.50;68.10
52621;DHT22;38515;53.160;6.990;2023-06-14T11:46:41;24.40;68.20
52621;DHT22;38515;53.160;6.990;2023-06-14T11:49:11;24.30;68.00
52621;DHT22;38515;53.160;6.990;2023-06-14T11:51:37;24.20;67.60
52621;DHT22;38515;53.160;6.990;2023-06-14T11:54:04;24.20;67.50
52621;DHT22;38515;53.160;6.990;2023-06-14T11:56:31;24.30;67.50
52621;DHT22;38515;53.160;6.990;2023-06-14T11:58:57;24.30;67.70
52621;DHT22;38515;53.160;6.990;2023-06-14T12:01:23;24.30;67.90
52621;DHT22;38515;53.160;6.990;2023-06-14T12:03:51;24.40;68.10
52621;DHT22;38515;53.160;6.990;2023-06-14T12:06:30;24.40;67.80
52621;DHT22;38515;53.160;6.990;2023-06-14T12:08:58;24.50;68.10
52621;DHT22;38515;53.160;6.990;2023-06-14T12:11:31;24.70;69.00
52621;DHT22;38515;53.160;6.990;2023-06-14T12:13:57;24.80;68.70
52621;DHT22;38515;53.160;6.990;2023-06-14T12:16:30;25.00;68.50
52621;DHT22;38515;53.160;6.990;2023-06-14T12:19:00;25.10;68.10
52621;DHT22;38515;53.160;6.990;2023-06-14T12:21:29;25.00;67.80
52621;DHT22;38515;53.160;6.990;2023-06-14T12:23:55;24.80;66.80
52621;DHT22;38515;53.160;6.990;2023-06-14T12:26:21;24.80;67.60
52621;DHT22;38515;53.160;6.990;2023-06-14T12:28:52;24.80;67.80
52621;DHT22;38515;53.160;6.990;2023-06-14T12:31:18;24.70;67.00
52621;DHT22;38515;53.160;6.990;2023-06-14T12:33:44;24.50;66.90
52621;DHT22;38515;53.160;6.990;2023-06-14T12:36:14;24.30;67.70
52621;DHT22;38515;53.160;6.990;2023-06-14T12:38:40;24.30;67.30
52621;DHT22;38515;53.160;6.990;2023-06-14T12:41:07;24.30;67.10
52621;DHT22;38515;53.160;6.990;2023-06-14T12:43:33;24.30;68.10
52621;DHT22;38515;53.160;6.990;2023-06-14T12:45:59;24.40;67.70
52621;DHT22;38515;53.160;6.990;2023-06-14T12:48:26;24.40;67.90
52621;DHT22;38515;53.160;6.990;2023-06-14T12:50:57;24.50;68.10
52621;DHT22;38515;53.160;6.990;2023-06-14T12:53:23;24.60;67.40
52621;DHT22;38515;53.160;6.990;2023-06-14T12:55:49;24.60;66.80
52621;DHT22;38515;53.160;6.990;2023-06-14T12:58:16;24.40;66.40
52621;DHT22;38515;53.160;6.990;2023-06-14T13:00:46;24.10;66.70
52621;DHT22;38515;53.160;6.990;2023-06-14T13:03:12;24.10;67.40
52621;DHT22;38515;53.160;6.990;2023-06-14T13:05:38;24.20;68.80
52621;DHT22;38515;53.160;6.990;2023-06-14T13:08:07;24.40;68.20
52621;DHT22;38515;53.160;6.990;2023-06-14T13:10:36;24.50;68.30
52621;DHT22;38515;53.160;6.990;2023-06-14T13:13:01;24.70;67.70
52621;DHT22;38515;53.160;6.990;2023-06-14T13:15:28;24.80;69.00
52621;DHT22;38515;53.160;6.990;2023-06-14T13:17:53;24.80;67.90
52621;DHT22;38515;53.160;6.990;2023-06-14T13:20:20;24.70;67.50
52621;DHT22;38515;53.160;6.990;2023-06-14T13:22:46;24.50;67.90
52621;DHT22;38515;53.160;6.990;2023-06-14T13:25:12;24.40;67.90
52621;DHT22;38515;53.160;6.990;2023-06-14T13:27:38;24.20;68.20
52621;DHT22;38515;53.160;6.990;2023-06-14T13:30:05;24.10;68.30
52621;DHT22;38515;53.160;6.990;2023-06-14T13:32:31;24.00;67.70
52621;DHT22;38515;53.160;6.990;2023-06-14T13:34:57;24.00;67.80
52621;DHT22;38515;53.160;6.990;2023-06-14T13:37:23;24.00;68.30
52621;DHT22;38515;53.160;6.990;2023-06-14T13:39:52;24.10;67.50
52621;DHT22;38515;53.160;6.990;2023-06-14T13:42:18;24.10;67.00
52621;DHT22;38515;53.160;6.990;2023-06-14T13:44:44;24.20;67.50
52621;DHT22;38515;53.160;6.990;2023-06-14T13:47:10;24.30;67.40
52621;DHT22;38515;53.160;6.990;2023-06-14T13:49:36;24.20;66.70
52621;DHT22;38515;53.160;6.990;2023-06-14T13:52:02;24.10;67.20
52621;DHT22;38515;53.160;6.990;2023-06-14T13:54:28;24.00;67.20
52621;DHT22;38515;53.160;6.990;2023-06-14T13:56:54;24.00;67.90
52621;DHT22;38515;53.160;6.990;2023-06-14T13:59:20;24.00;67.60
52621;DHT22;38515;53.160;6.990;2023-06-14T14:01:49;24.00;67.40
52621;DHT22;38515;53.160;6.990;2023-06-14T14:04:15;24.00;68.00
52621;DHT22;38515;53.160;6.990;2023-06-14T14:06:42;24.00;67.80
52621;DHT22;38515;53.160;6.990;2023-06-14T14:09:08;24.00;67.80
52621;DHT22;38515;53.160;6.990;2023-06-14T14:11:34;24.10;67.90
52621;DHT22;38515;53.160;6.990;2023-06-14T14:14:00;24.20;68.20
52621;DHT22;38515;53.160;6.990;2023-06-14T14:16:27;24.30;67.30
52621;DHT22;38515;53.160;6.990;2023-06-14T14:18:52;24.40;66.40
52621;DHT22;38515;53.160;6.990;2023-06-14T14:21:18;24.50;65.70
52621;DHT22;38515;53.160;6.990;2023-06-14T14:23:44;24.50;65.70
52621;DHT22;38515;53.160;6.990;2023-06-14T14:26:11;24.60;65.80
52621;DHT22;38515;53.160;6.990;2023-06-14T14:28:37;24.60;66.20
52621;DHT22;38515;53.160;6.990;2023-06-14T14:31:02;24.50;65.90
52621;DHT22;38515;53.160;6.990;2023-06-14T14:33:28;24.40;67.00
52621;DHT22;38515;53.160;6.990;2023-06-14T14:35:54;24.40;66.40
52621;DHT22;38515;53.160;6.990;2023-06-14T14:38:20;24.30;65.50
52621;DHT22;38515;53.160;6.990;2023-06-14T14:40:47;24.10;65.30
52621;DHT22;38515;53.160;6.990;2023-06-14T14:43:13;24.20;65.80
52621;DHT22;38515;53.160;6.990;2023-06-14T14:45:42;24.30;66.40
52621;DHT22;38515;53.160;6.990;2023-06-14T14:48:08;24.30;66.10
52621;DHT22;38515;53.160;6.990;2023-06-14T14:50:34;24.30;65.50
52621;DHT22;38515;53.160;6.990;2023-06-14T14:53:00;24.20;65.60
52621;DHT22;38515;53.160;6.990;2023-06-14T14:55:26;24.30;66.70
52621;DHT22;38515;53.160;6.990;2023-06-14T14:57:51;24.30;66.30
52621;DHT22;38515;53.160;6.990;2023-06-14T15:00:17;24.40;66.40
52621;DHT22;38515;53.160;6.990;2023-06-14T15:02:43;24.50;67.90
52621;DHT22;38515;53.160;6.990;2023-06-14T15:05:09;24.50;66.80
52621;DHT22;38515;53.160;6.990;2023-06-14T15:07:35;24.60;66.60
52621;DHT22;38515;53.160;6.990;2023-06-14T15:10:01;24.70;66.90
52621;DHT22;38515;53.160;6.990;2023-06-14T15:12:27;24.70;67.70
52621;DHT22;38515;53.160;6.990;2023-06-14T15:14:53;24.60;68.00
52621;DHT22;38515;53.160;6.990;2023-06-14T15:17:19;24.60;67.20
52621;DHT22;38515;53.160;6.990;2023-06-14T15:19:47;24.60;67.30
52621;DHT22;38515;53.160;6.990;2023-06-14T15:22:13;24.60;67.50
52621;DHT22;38515;53.160;6.990;2023-06-14T15:24:43;24.70;68.50
52621;DHT22;38515;53.160;6.990;2023-06-14T15:27:09;24.80;67.70
52621;DHT22;38515;53.160;6.990;2023-06-14T15:29:36;24.80;65.50
52621;DHT22;38515;53.160;6.990;2023-06-14T15:32:03;24.80;65.70
52621;DHT22;38515;53.160;6.990;2023-06-14T15:34:30;24.90;66.20
52621;DHT22;38515;53.160;6.990;2023-06-14T15:36:56;25.00;65.40
52621;DHT22;38515;53.160;6.990;2023-06-14T15:39:22;25.10;66.20
52621;DHT22;38515;53.160;6.990;2023-06-14T15:41:50;25.10;66.10